F/V Adeline Stephen — FGUF — position and weather

sailwx.info

Track history (hours):
 
Tides and Currents Weather Stations Pressure Air Temp Water Temp Dewpoint Dewpoint Depression Visibility Wind Speed Wind Dir Waves Ship Positions

F/V Adeline Stephen

Last reported at 2014-Nov-26 11:12 UTC. Time now 2014-Nov-26 20:25 UTC.
Position N 47°44' W 003°22'.

Length 18 m.

Type: Fishing. MMSI: 228929000.

Date/timePositionNaut miles runAvg speedWind from/ knotsBaromVisibWave heightAir tempDewpointWater temp
2014-Nov-26 11:12N 47°44' W 003°22'1 1.7
2014-Nov-26 10:34N 47°43' W 003°22'9 8.5
2014-Nov-26 09:32N 47°34' W 003°22'  
2014-Nov-20 13:33N 47°44' W 003°22'0 0.1
2014-Nov-20 12:33N 47°44' W 003°22'0 0.0
2014-Nov-20 11:33N 47°44' W 003°22'0 0.0
2014-Nov-20 10:33N 47°44' W 003°22'0 0.0
2014-Nov-20 09:33N 47°44' W 003°22'4 0.2
2014-Nov-19 14:15N 47°39' W 003°21'5 6.6
2014-Nov-19 13:33N 47°44' W 003°22'0 0.0
2014-Nov-19 12:33N 47°44' W 003°22'0 0.2
2014-Nov-19 11:33N 47°44' W 003°22'0 0.0
2014-Nov-19 10:33N 47°44' W 003°22'21 0.4
2014-Nov-17 08:27N 47°26' W 003°07'8 9.2
2014-Nov-17 07:34N 47°32' W 003°14'9 9.2
2014-Nov-17 06:34N 47°40' W 003°22'4 3.7
2014-Nov-17 05:34N 47°44' W 003°22'0 0.2
2014-Nov-17 04:33N 47°44' W 003°22'0 0.0
2014-Nov-17 03:33N 47°44' W 003°22'4 4.2
2014-Nov-17 02:33N 47°40' W 003°22'9 9.1
2014-Nov-17 01:33N 47°32' W 003°14'  
Track history (hours):
 
Tides and Currents Weather Stations Pressure Air Temp Water Temp Dewpoint Dewpoint Depression Visibility Wind Speed Wind Dir Waves Ship Positions

F/V Adeline Stephen

Last reported at 2014-Nov-26 11:12 UTC. Time now 2014-Nov-26 20:25 UTC.
Position N 47°44' W 003°22'.

Length 18 m.

Type: Fishing. MMSI: 228929000.

Date/timePositionNaut miles runAvg speedWind from/ knotsBaromVisibWave heightAir tempDewpointWater temp
2014-Nov-26 11:12N 47°44' W 003°22'1 1.7
2014-Nov-26 10:34N 47°43' W 003°22'9 8.5
2014-Nov-26 09:32N 47°34' W 003°22'  
2014-Nov-20 13:33N 47°44' W 003°22'0 0.1
2014-Nov-20 12:33N 47°44' W 003°22'0 0.0
2014-Nov-20 11:33N 47°44' W 003°22'0 0.0
2014-Nov-20 10:33N 47°44' W 003°22'0 0.0
2014-Nov-20 09:33N 47°44' W 003°22'4 0.2
2014-Nov-19 14:15N 47°39' W 003°21'5 6.6
2014-Nov-19 13:33N 47°44' W 003°22'0 0.0
2014-Nov-19 12:33N 47°44' W 003°22'0 0.2
2014-Nov-19 11:33N 47°44' W 003°22'0 0.0
2014-Nov-19 10:33N 47°44' W 003°22'21 0.4
2014-Nov-17 08:27N 47°26' W 003°07'8 9.2
2014-Nov-17 07:34N 47°32' W 003°14'9 9.2
2014-Nov-17 06:34N 47°40' W 003°22'4 3.7
2014-Nov-17 05:34N 47°44' W 003°22'0 0.2
2014-Nov-17 04:33N 47°44' W 003°22'0 0.0
2014-Nov-17 03:33N 47°44' W 003°22'4 4.2
2014-Nov-17 02:33N 47°40' W 003°22'9 9.1
2014-Nov-17 01:33N 47°32' W 003°14'  

Dump ship's entire track history